createdAt,value
2023-02-22T00:03:00.008Z,34.15
2023-02-22T00:06:05.141Z,34.47
2023-02-22T00:09:09.369Z,34.34
2023-02-22T00:12:13.573Z,34.39
2023-02-22T00:15:17.048Z,34.48
2023-02-22T00:18:20.400Z,34.14
2023-02-22T00:21:23.312Z,34.23
2023-02-22T00:24:26.193Z,34.35
2023-02-22T00:27:30.389Z,34.28
2023-02-22T00:30:33.908Z,34.21
2023-02-22T00:33:37.586Z,34.37
2023-02-22T00:36:40.325Z,34.04
2023-02-22T00:39:43.165Z,34.31
2023-02-22T00:42:47.513Z,34.35
2023-02-22T00:45:50.341Z,34.30
2023-02-22T00:48:53.202Z,34.32
2023-02-22T00:51:55.991Z,34.25
2023-02-22T00:55:00.087Z,34.31
2023-02-22T00:58:04.910Z,34.36
2023-02-22T01:01:07.723Z,34.51
2023-02-22T01:04:10.887Z,34.05
2023-02-22T01:07:14.420Z,34.27
2023-02-22T01:10:17.921Z,34.30
2023-02-22T01:13:23.142Z,34.29
2023-02-22T01:16:26.016Z,34.26
2023-02-22T01:19:28.805Z,34.29
2023-02-22T01:22:31.924Z,33.94
2023-02-22T01:25:35.179Z,34.12
2023-02-22T01:28:40.073Z,34.30
2023-02-22T01:31:44.174Z,34.02
2023-02-22T01:34:46.974Z,34.29
2023-02-22T01:37:49.732Z,34.02
2023-02-22T01:40:53.085Z,34.08
2023-02-22T01:43:57.199Z,34.04
2023-02-22T01:47:00.631Z,34.01
2023-02-22T01:50:03.485Z,34.09
2023-02-22T01:53:06.756Z,34.26
2023-02-22T01:56:09.842Z,33.96
2023-02-22T01:59:14.575Z,34.18
2023-02-22T02:02:17.493Z,34.12
2023-02-22T02:05:20.539Z,34.14
2023-02-22T02:08:27.034Z,34.11
2023-02-22T02:11:29.994Z,34.29
2023-02-22T02:14:34.257Z,34.22
2023-02-22T02:17:37.218Z,34.47
2023-02-22T02:20:43.494Z,34.39
2023-02-22T02:23:57.201Z,34.50
2023-02-22T02:27:09.227Z,34.50
2023-02-22T02:30:35.684Z,34.50
2023-02-22T02:33:44.254Z,34.70
2023-02-22T02:36:54.137Z,34.89
2023-02-22T02:40:00.353Z,34.68
2023-02-22T02:43:07.716Z,34.71
2023-02-22T02:46:12.844Z,34.75
2023-02-22T02:49:20.351Z,34.91
2023-02-22T02:52:24.517Z,34.94
2023-02-22T02:55:28.380Z,35.00
2023-02-22T02:58:31.282Z,34.98
2023-02-22T03:01:42.774Z,35.12
2023-02-22T03:05:02.952Z,35.06
2023-02-22T03:08:09.811Z,35.12
2023-02-22T03:11:16.399Z,35.28
2023-02-22T03:14:23.242Z,35.14
2023-02-22T03:17:30.316Z,35.42
2023-02-22T03:20:43.286Z,35.27
2023-02-22T03:23:48.716Z,35.32
2023-02-22T03:26:54.678Z,35.46
2023-02-22T03:30:00.480Z,35.44
2023-02-22T03:33:09.174Z,35.52
2023-02-22T03:36:16.207Z,35.47
2023-02-22T03:39:20.689Z,35.46
2023-02-22T03:42:25.535Z,35.53
2023-02-22T03:45:30.103Z,35.55
2023-02-22T03:48:37.533Z,35.49
2023-02-22T03:51:41.976Z,35.63
2023-02-22T03:54:44.753Z,35.78
2023-02-22T03:57:49.427Z,35.69
2023-02-22T04:00:53.413Z,35.62
2023-02-22T04:03:56.282Z,35.65
2023-02-22T04:07:00.435Z,35.78
2023-02-22T04:10:03.601Z,35.75
2023-02-22T04:13:07.114Z,35.67
2023-02-22T04:16:10.105Z,35.53
2023-02-22T04:19:12.839Z,35.57
2023-02-22T04:22:17.026Z,35.67
2023-02-22T04:25:19.953Z,35.58
2023-02-22T04:28:23.070Z,35.62
2023-02-22T04:31:25.908Z,35.58
2023-02-22T04:34:28.803Z,35.68
2023-02-22T04:37:34.835Z,35.61
2023-02-22T04:40:37.571Z,35.50
2023-02-22T04:43:40.384Z,35.62
2023-02-22T04:46:43.224Z,35.37
2023-02-22T04:49:46.129Z,35.61
2023-02-22T04:52:50.288Z,35.47
2023-02-22T04:55:53.334Z,35.54
2023-02-22T04:58:56.061Z,35.54
2023-02-22T05:01:58.856Z,35.51
2023-02-22T05:05:01.688Z,35.36
2023-02-22T05:08:06.054Z,35.09
2023-02-22T05:11:09.845Z,34.97
2023-02-22T05:14:12.784Z,34.93
2023-02-22T05:17:15.832Z,34.43
2023-02-22T05:20:20.705Z,34.59
2023-02-22T05:23:24.812Z,34.43
2023-02-22T05:26:27.657Z,34.39
2023-02-22T05:29:30.498Z,34.09
2023-02-22T05:32:33.260Z,34.19
2023-02-22T05:35:37.203Z,34.12
2023-02-22T05:38:43.597Z,33.94
2023-02-22T05:41:49.533Z,33.71
2023-02-22T05:44:52.284Z,33.93
2023-02-22T05:47:55.600Z,33.71
2023-02-22T05:50:58.384Z,33.84
2023-02-22T05:54:02.547Z,33.62
2023-02-22T05:57:05.256Z,33.59
2023-02-22T06:00:08.815Z,33.58
2023-02-22T06:03:12.620Z,33.57
2023-02-22T06:06:15.533Z,33.59
2023-02-22T06:09:19.658Z,33.65
2023-02-22T06:12:22.450Z,33.78
2023-02-22T06:15:25.712Z,33.80
2023-02-22T06:18:30.482Z,33.82
2023-02-22T06:21:33.430Z,33.82
2023-02-22T06:24:39.445Z,33.92
2023-02-22T06:27:42.265Z,34.00
2023-02-22T06:30:45.123Z,34.01
2023-02-22T06:33:47.923Z,33.95
2023-02-22T06:36:50.764Z,34.08
2023-02-22T06:39:54.878Z,34.10
2023-02-22T06:42:57.916Z,34.29
2023-02-22T06:46:00.800Z,34.28
2023-02-22T06:49:03.632Z,34.28
2023-02-22T06:52:06.732Z,34.09
2023-02-22T06:55:10.877Z,34.36
2023-02-22T06:58:13.612Z,34.14
2023-02-22T07:01:17.118Z,34.36
2023-02-22T07:04:20.155Z,34.33
2023-02-22T07:07:25.305Z,34.32
2023-02-22T07:10:30.781Z,34.31
2023-02-22T07:13:33.578Z,34.28
2023-02-22T07:16:36.507Z,34.63
2023-02-22T07:19:39.305Z,34.53
2023-02-22T07:22:42.062Z,34.49
2023-02-22T07:25:46.336Z,34.43
2023-02-22T07:28:49.063Z,34.47
2023-02-22T07:31:51.949Z,34.60
2023-02-22T07:34:54.734Z,34.59
2023-02-22T07:37:57.765Z,34.56
2023-02-22T07:41:01.903Z,34.52
2023-02-22T07:44:04.750Z,34.56
2023-02-22T07:47:07.760Z,34.57
2023-02-22T07:50:10.552Z,34.65
2023-02-22T07:53:14.720Z,34.69
2023-02-22T07:56:18.992Z,34.66
2023-02-22T07:59:22.188Z,34.69
2023-02-22T08:02:26.710Z,34.80
2023-02-22T08:05:30.604Z,34.60
2023-02-22T08:08:34.573Z,34.70
2023-02-22T08:11:40.045Z,34.71
2023-02-22T08:14:42.896Z,34.71
2023-02-22T08:17:45.748Z,34.89
2023-02-22T08:20:49.296Z,34.64
2023-02-22T08:23:52.708Z,34.91
2023-02-22T08:26:56.786Z,34.82
2023-02-22T08:29:59.589Z,34.88
2023-02-22T08:33:03.095Z,34.92
2023-02-22T08:36:06.435Z,34.93
2023-02-22T08:39:09.260Z,34.82
2023-02-22T08:42:13.433Z,34.81
2023-02-22T08:45:16.211Z,34.62
2023-02-22T08:48:19.074Z,34.80
2023-02-22T08:51:21.875Z,34.68
2023-02-22T08:54:24.683Z,34.75
2023-02-22T08:57:28.843Z,34.83
2023-02-22T09:00:33.360Z,34.87
2023-02-22T09:03:36.271Z,34.50
2023-02-22T09:06:41.249Z,34.40
2023-02-22T09:09:44.318Z,34.13
2023-02-22T09:12:48.431Z,34.11
2023-02-22T09:15:51.202Z,33.95
2023-02-22T09:18:53.999Z,33.75
2023-02-22T09:21:56.833Z,33.55
2023-02-22T09:25:02.635Z,33.57
2023-02-22T09:28:11.981Z,33.45
2023-02-22T09:31:14.894Z,33.37
2023-02-22T09:34:17.882Z,33.27
2023-02-22T09:37:20.852Z,33.22
2023-02-22T09:40:29.708Z,33.07
2023-02-22T09:43:40.686Z,33.16
2023-02-22T09:46:45.964Z,32.19
2023-02-22T09:49:57.495Z,31.84
2023-02-22T09:53:04.341Z,32.80
2023-02-22T09:56:11.077Z,33.03
2023-02-22T09:59:18.921Z,33.22
2023-02-22T10:02:26.446Z,33.16
2023-02-22T10:05:33.884Z,33.25
2023-02-22T10:08:38.917Z,33.52
2023-02-22T10:11:50.548Z,33.56
2023-02-22T10:15:08.207Z,33.55
2023-02-22T10:18:34.647Z,33.50
2023-02-22T10:21:47.760Z,33.41
2023-02-22T10:24:55.831Z,33.58
2023-02-22T10:28:00.150Z,33.70
2023-02-22T10:31:05.282Z,33.75
2023-02-22T10:34:13.691Z,33.72
2023-02-22T10:37:26.703Z,33.75
2023-02-22T10:40:35.672Z,33.55
2023-02-22T10:43:38.861Z,33.75
2023-02-22T10:46:42.104Z,33.66
2023-02-22T10:49:47.368Z,34.55
2023-02-22T10:52:51.509Z,34.00
2023-02-22T10:56:12.836Z,34.23
2023-02-22T10:59:28.154Z,34.44
2023-02-22T11:02:32.154Z,34.56
2023-02-22T11:05:37.343Z,34.50
2023-02-22T11:08:41.720Z,34.60
2023-02-22T11:11:46.019Z,34.49
2023-02-22T11:14:49.025Z,34.46
2023-02-22T11:17:53.088Z,34.51
2023-02-22T11:21:03.236Z,34.40
2023-02-22T11:24:09.641Z,34.92
2023-02-22T11:27:23.019Z,35.66
2023-02-22T11:30:31.207Z,35.56
2023-02-22T11:33:34.147Z,34.73
2023-02-22T11:36:40.593Z,35.80
2023-02-22T11:39:45.018Z,35.86
2023-02-22T11:42:48.040Z,35.61
2023-02-22T11:46:02.177Z,35.48
2023-02-22T11:49:07.113Z,35.43
2023-02-22T11:52:17.924Z,35.28
2023-02-22T11:55:41.175Z,35.45
2023-02-22T11:58:48.052Z,34.99
2023-02-22T12:01:53.438Z,35.19
2023-02-22T12:05:01.609Z,35.16
2023-02-22T12:08:20.264Z,35.14
2023-02-22T12:11:28.737Z,35.09
2023-02-22T12:14:35.696Z,35.16
2023-02-22T12:17:54.315Z,35.03
2023-02-22T12:21:01.724Z,35.15
2023-02-22T12:24:07.342Z,35.08
2023-02-22T12:27:13.052Z,34.94
2023-02-22T12:30:20.209Z,34.90
2023-02-22T12:33:26.362Z,34.93
2023-02-22T12:36:33.550Z,34.99
2023-02-22T12:39:52.127Z,34.96
2023-02-22T12:43:01.831Z,34.96
2023-02-22T12:46:07.418Z,34.96
2023-02-22T12:49:15.408Z,34.79
2023-02-22T12:52:26.817Z,34.76
2023-02-22T12:55:32.805Z,34.67
2023-02-22T12:58:40.789Z,34.39
2023-02-22T13:01:46.009Z,34.74
2023-02-22T13:04:49.137Z,34.64
2023-02-22T13:07:59.561Z,34.42
2023-02-22T13:11:06.600Z,33.89
2023-02-22T13:14:17.336Z,33.37
2023-02-22T13:17:24.653Z,33.95
2023-02-22T13:20:30.034Z,34.13
2023-02-22T13:23:37.369Z,33.39
2023-02-22T13:26:42.501Z,34.10
2023-02-22T13:29:48.739Z,34.87
2023-02-22T13:33:10.595Z,33.80
2023-02-22T13:36:23.495Z,33.63
2023-02-22T13:39:39.536Z,34.66
2023-02-22T13:42:52.973Z,34.49
2023-02-22T13:46:03.110Z,34.21
2023-02-22T13:49:12.297Z,34.04
2023-02-22T13:52:17.815Z,34.28
2023-02-22T13:55:22.415Z,34.01
2023-02-22T13:58:25.992Z,33.88
2023-02-22T14:01:46.902Z,33.89
2023-02-22T14:04:51.096Z,33.79
2023-02-22T14:07:53.817Z,34.13
2023-02-22T14:10:57.585Z,33.77
2023-02-22T14:14:17.845Z,33.69
2023-02-22T14:17:29.982Z,33.05
2023-02-22T14:20:36.857Z,33.57
2023-02-22T14:23:41.435Z,33.68
2023-02-22T14:26:55.193Z,34.30
2023-02-22T14:30:00.628Z,33.77
2023-02-22T14:33:03.666Z,34.11
2023-02-22T14:36:08.143Z,33.91
2023-02-22T14:39:13.989Z,33.98
2023-02-22T14:42:19.301Z,33.74
2023-02-22T14:45:25.639Z,33.76
2023-02-22T14:48:37.446Z,33.83
2023-02-22T14:51:42.759Z,33.63
2023-02-22T14:54:52.936Z,33.74
2023-02-22T14:58:04.440Z,33.71
2023-02-22T15:01:33.866Z,33.78
2023-02-22T15:04:42.369Z,33.73
2023-02-22T15:07:53.463Z,33.65
2023-02-22T15:10:56.309Z,33.86
2023-02-22T15:13:59.464Z,33.73
2023-02-22T15:17:04.352Z,33.66
2023-02-22T15:20:10.137Z,33.64
2023-02-22T15:23:15.474Z,33.83
2023-02-22T15:26:19.451Z,33.59
2023-02-22T15:29:24.806Z,33.64
2023-02-22T15:32:30.983Z,33.61
2023-02-22T15:35:34.510Z,33.59
2023-02-22T15:38:39.937Z,33.56
2023-02-22T15:41:42.642Z,33.65
2023-02-22T15:44:46.064Z,33.69
2023-02-22T15:47:50.498Z,33.80
2023-02-22T15:51:06.737Z,33.70
2023-02-22T15:54:26.566Z,33.70
2023-02-22T15:57:30.651Z,33.45
2023-02-22T16:00:37.110Z,33.63
2023-02-22T16:03:45.086Z,33.76
2023-02-22T16:06:48.669Z,33.73
2023-02-22T16:09:53.329Z,33.75
2023-02-22T16:13:06.336Z,33.72
2023-02-22T16:16:23.584Z,33.77
2023-02-22T16:19:28.761Z,33.74
2023-02-22T16:22:34.752Z,33.69
2023-02-22T16:25:39.670Z,33.81
2023-02-22T16:28:51.931Z,33.53
2023-02-22T16:31:54.774Z,33.74
2023-02-22T16:34:57.715Z,33.62
2023-02-22T16:38:01.499Z,33.76
2023-02-22T16:41:06.770Z,33.68
2023-02-22T16:44:12.918Z,33.51
2023-02-22T16:47:15.827Z,33.58
2023-02-22T16:50:18.636Z,33.58
2023-02-22T16:53:23.384Z,33.59
2023-02-22T16:56:30.813Z,33.53
2023-02-22T16:59:37.412Z,33.53
2023-02-22T17:02:40.323Z,33.44
2023-02-22T17:05:43.349Z,33.85
2023-02-22T17:08:46.313Z,33.33
2023-02-22T17:11:52.520Z,34.03
2023-02-22T17:14:55.846Z,33.90
2023-02-22T17:17:58.625Z,33.66
2023-02-22T17:21:01.993Z,33.78
2023-02-22T17:24:04.988Z,33.86
2023-02-22T17:27:09.170Z,33.78
2023-02-22T17:30:13.929Z,33.40
2023-02-22T17:33:17.886Z,33.49
2023-02-22T17:36:20.985Z,33.91
2023-02-22T17:39:23.873Z,33.93
2023-02-22T17:42:28.033Z,34.57
2023-02-22T17:45:31.108Z,35.22
2023-02-22T17:48:34.161Z,35.12
2023-02-22T17:51:40.981Z,35.04
2023-02-22T17:54:44.597Z,35.45
2023-02-22T17:57:57.327Z,35.16
2023-02-22T18:01:00.505Z,35.63
2023-02-22T18:04:06.512Z,35.36
2023-02-22T18:07:09.434Z,35.57
2023-02-22T18:10:12.859Z,35.40
2023-02-22T18:13:17.998Z,35.57
2023-02-22T18:16:21.197Z,35.49
2023-02-22T18:19:24.149Z,35.64
2023-02-22T18:22:26.963Z,35.56
2023-02-22T18:25:30.211Z,35.64
2023-02-22T18:28:34.401Z,35.42
2023-02-22T18:31:37.187Z,35.23
2023-02-22T18:34:40.376Z,34.90
2023-02-22T18:37:44.534Z,34.82
2023-02-22T18:40:48.041Z,34.78
2023-02-22T18:43:54.117Z,34.61
2023-02-22T18:46:56.980Z,34.67
2023-02-22T18:50:00.246Z,34.37
2023-02-22T18:53:03.185Z,34.33
2023-02-22T18:56:06.511Z,34.33
2023-02-22T18:59:12.310Z,34.38
2023-02-22T19:02:15.571Z,34.27
2023-02-22T19:05:18.404Z,34.18
2023-02-22T19:08:21.162Z,34.29
2023-02-22T19:11:25.044Z,34.34
2023-02-22T19:14:29.258Z,34.38
2023-02-22T19:17:32.752Z,34.30
2023-02-22T19:20:36.038Z,34.47
2023-02-22T19:23:45.475Z,34.15
2023-02-22T19:26:50.894Z,34.31
2023-02-22T19:29:55.034Z,34.76
2023-02-22T19:32:57.818Z,34.79
2023-02-22T19:36:00.755Z,34.86
2023-02-22T19:39:04.608Z,35.00
2023-02-22T19:42:09.732Z,34.97
2023-02-22T19:45:13.893Z,34.97
2023-02-22T19:48:17.222Z,35.11
2023-02-22T19:51:21.278Z,35.02
2023-02-22T19:54:24.128Z,35.06
2023-02-22T19:57:29.979Z,34.93
2023-02-22T20:00:35.693Z,35.03
2023-02-22T20:03:38.867Z,35.44
2023-02-22T20:06:42.786Z,35.41
2023-02-22T20:09:45.580Z,35.37
2023-02-22T20:12:48.356Z,35.02
2023-02-22T20:15:53.533Z,36.02
2023-02-22T20:18:56.742Z,36.01
2023-02-22T20:22:00.431Z,35.81
2023-02-22T20:25:03.290Z,36.79
2023-02-22T20:28:07.723Z,35.93
2023-02-22T20:31:13.834Z,35.67
2023-02-22T20:34:16.722Z,35.81
2023-02-22T20:37:19.550Z,35.57
2023-02-22T20:40:22.316Z,35.40
2023-02-22T20:43:25.124Z,35.06
2023-02-22T20:46:31.585Z,34.96
2023-02-22T20:49:34.497Z,34.91
2023-02-22T20:52:37.310Z,34.77
2023-02-22T20:55:48.807Z,34.50
2023-02-22T20:58:52.208Z,34.53
2023-02-22T21:01:56.356Z,34.62
2023-02-22T21:04:59.453Z,34.55
2023-02-22T21:08:03.527Z,34.65
2023-02-22T21:11:10.707Z,34.25
2023-02-22T21:14:18.585Z,34.26
2023-02-22T21:17:28.838Z,34.33
2023-02-22T21:20:31.828Z,34.27
2023-02-22T21:23:34.651Z,34.23
2023-02-22T21:26:37.392Z,34.31
2023-02-22T21:29:40.776Z,34.21
2023-02-22T21:32:44.906Z,34.25
2023-02-22T21:35:48.133Z,34.17
2023-02-22T21:38:53.628Z,34.23
2023-02-22T21:42:00.172Z,34.07
2023-02-22T21:45:03.058Z,34.07
2023-02-22T21:48:07.488Z,34.10
2023-02-22T21:51:13.962Z,34.04
2023-02-22T21:54:17.180Z,34.01
2023-02-22T21:57:19.970Z,33.91
2023-02-22T22:00:29.343Z,34.50
2023-02-22T22:03:36.323Z,34.47
2023-02-22T22:06:39.152Z,34.06
2023-02-22T22:09:43.198Z,34.22
2023-02-22T22:12:46.538Z,34.09
2023-02-22T22:15:49.403Z,34.25
2023-02-22T22:18:53.616Z,34.17
2023-02-22T22:21:56.920Z,34.13
2023-02-22T22:24:59.714Z,34.03
2023-02-22T22:28:02.503Z,34.23
2023-02-22T22:31:05.893Z,33.99
2023-02-22T22:34:10.097Z,33.91
2023-02-22T22:37:13.306Z,33.98
2023-02-22T22:40:16.372Z,34.04
2023-02-22T22:43:19.704Z,33.79
2023-02-22T22:46:22.624Z,33.80
2023-02-22T22:49:28.541Z,33.91
2023-02-22T22:52:35.190Z,33.90
2023-02-22T22:55:40.794Z,33.83
2023-02-22T22:58:44.301Z,33.89
2023-02-22T23:01:47.107Z,33.74
2023-02-22T23:04:52.250Z,33.96
2023-02-22T23:07:56.317Z,33.85
2023-02-22T23:10:59.048Z,33.75
2023-02-22T23:14:03.557Z,33.82
2023-02-22T23:17:15.304Z,33.83
2023-02-22T23:20:22.724Z,33.56
2023-02-22T23:23:27.784Z,33.79
2023-02-22T23:26:30.601Z,34.24
2023-02-22T23:29:34.033Z,34.19
2023-02-22T23:32:36.891Z,33.94
2023-02-22T23:35:42.501Z,34.09
2023-02-22T23:38:45.576Z,34.06
2023-02-22T23:41:50.909Z,34.01
2023-02-22T23:44:53.958Z,33.94
2023-02-22T23:47:57.555Z,33.85
2023-02-22T23:51:09.196Z,33.97
2023-02-22T23:54:13.400Z,34.01
2023-02-22T23:57:17.677Z,33.83
